createdAt,value
2019-04-30T00:01:55.701Z,9.77
2019-04-30T00:04:29.934Z,9.74
2019-04-30T00:06:58.902Z,9.75
2019-04-30T00:09:28.728Z,9.78
2019-04-30T00:12:01.054Z,9.82
2019-04-30T00:14:37.284Z,9.81
2019-04-30T00:16:59.818Z,9.78
2019-04-30T00:19:28.980Z,9.67
2019-04-30T00:22:00.447Z,9.69
2019-04-30T00:24:29.189Z,9.62
2019-04-30T00:26:58.666Z,9.59
2019-04-30T00:29:30.844Z,9.67
2019-04-30T00:32:04.394Z,9.68
2019-04-30T00:34:30.882Z,9.63
2019-04-30T00:37:00.714Z,9.62
2019-04-30T00:39:29.955Z,9.60
2019-04-30T00:41:59.077Z,9.60
2019-04-30T00:44:28.590Z,9.66
2019-04-30T00:47:00.595Z,9.70
2019-04-30T00:49:28.774Z,9.64
2019-04-30T00:51:58.349Z,9.68
2019-04-30T00:54:30.662Z,9.60
2019-04-30T00:57:03.694Z,9.57
2019-04-30T00:59:29.466Z,9.58
2019-04-30T01:02:11.471Z,9.61
2019-04-30T01:04:49.538Z,9.67
2019-04-30T01:07:18.804Z,9.73
2019-04-30T01:09:49.853Z,9.73
2019-04-30T01:12:27.587Z,9.74
2019-04-30T01:14:49.968Z,9.69
2019-04-30T01:17:19.150Z,9.63
2019-04-30T01:19:51.194Z,9.64
2019-04-30T01:22:27.758Z,9.68
2019-04-30T01:24:50.292Z,9.66
2019-04-30T01:27:19.915Z,9.68
2019-04-30T01:29:49.060Z,9.73
2019-04-30T01:32:20.986Z,9.77
2019-04-30T01:34:53.845Z,9.72
2019-04-30T01:37:24.920Z,9.62
2019-04-30T01:39:51.146Z,9.52
2019-04-30T01:42:20.278Z,9.54
2019-04-30T01:44:53.595Z,9.49
2019-04-30T01:47:21.470Z,9.52
2019-04-30T01:49:51.230Z,9.55
2019-04-30T01:52:20.426Z,9.55
2019-04-30T01:54:49.587Z,9.58
2019-04-30T01:57:36.762Z,9.58
2019-04-30T02:00:34.700Z,9.58
2019-04-30T02:03:03.847Z,9.55
2019-04-30T02:05:32.994Z,9.60
2019-04-30T02:08:02.188Z,9.65
2019-04-30T02:10:31.328Z,9.61
2019-04-30T02:13:00.569Z,9.60
2019-04-30T02:15:29.720Z,9.63
2019-04-30T02:17:58.975Z,9.66
2019-04-30T02:20:28.791Z,9.69
2019-04-30T02:22:58.655Z,9.58
2019-04-30T02:25:29.566Z,9.63
2019-04-30T02:27:59.270Z,9.59
2019-04-30T02:30:30.996Z,9.65
2019-04-30T02:33:00.576Z,9.65
2019-04-30T02:35:52.183Z,9.64
2019-04-30T02:38:25.708Z,9.58
2019-04-30T02:40:55.255Z,9.54
2019-04-30T02:43:25.690Z,9.58
2019-04-30T02:45:59.966Z,9.64
2019-04-30T02:48:31.425Z,9.67
2019-04-30T02:51:03.515Z,9.66
2019-04-30T02:54:06.618Z,9.63
2019-04-30T02:56:35.788Z,9.66
2019-04-30T02:59:05.076Z,9.69
2019-04-30T03:01:34.398Z,9.72
2019-04-30T03:04:03.730Z,9.67
2019-04-30T03:06:32.910Z,9.60
2019-04-30T03:09:02.096Z,9.58
2019-04-30T03:11:31.247Z,9.64
2019-04-30T03:14:00.419Z,9.67
2019-04-30T03:16:39.958Z,9.66
2019-04-30T03:19:29.320Z,9.67
2019-04-30T03:22:05.163Z,9.70
2019-04-30T03:24:34.324Z,9.67
2019-04-30T03:27:03.550Z,9.68
2019-04-30T03:29:32.820Z,9.67
2019-04-30T03:32:03.481Z,9.68
2019-04-30T03:34:33.377Z,9.70
2019-04-30T03:37:02.711Z,9.72
2019-04-30T03:39:34.043Z,9.70
2019-04-30T03:42:02.792Z,9.67
2019-04-30T03:44:32.518Z,9.66
2019-04-30T03:47:05.066Z,9.65
2019-04-30T03:49:34.217Z,9.63
2019-04-30T03:52:03.434Z,9.61
2019-04-30T03:54:32.573Z,9.56
2019-04-30T03:57:01.763Z,9.50
2019-04-30T03:59:31.029Z,9.46
2019-04-30T04:02:30.197Z,9.41
2019-04-30T04:05:10.329Z,9.39
2019-04-30T04:07:59.843Z,9.50
2019-04-30T04:10:40.341Z,9.45
2019-04-30T04:13:10.349Z,9.47
2019-04-30T04:15:40.146Z,9.50
2019-04-30T04:18:10.718Z,9.48
2019-04-30T04:20:42.854Z,9.38
2019-04-30T04:23:11.258Z,9.37
2019-04-30T04:25:40.421Z,9.35
2019-04-30T04:28:10.045Z,9.31
2019-04-30T04:30:42.897Z,9.29
2019-04-30T04:33:10.547Z,9.27
2019-04-30T04:35:40.087Z,9.26
2019-04-30T04:38:12.237Z,9.26
2019-04-30T04:40:41.968Z,9.27
2019-04-30T04:43:11.150Z,9.29
2019-04-30T04:45:43.690Z,9.34
2019-04-30T04:48:11.531Z,9.38
2019-04-30T04:50:40.665Z,9.41
2019-04-30T04:53:11.561Z,9.52
2019-04-30T04:55:40.958Z,9.60
2019-04-30T04:58:12.968Z,9.66
2019-04-30T05:00:41.083Z,9.70
2019-04-30T05:03:29.879Z,9.66
2019-04-30T05:06:02.276Z,9.67
2019-04-30T05:08:30.193Z,9.68
2019-04-30T05:10:59.508Z,9.65
2019-04-30T05:13:29.148Z,9.58
2019-04-30T05:15:59.421Z,9.60
2019-04-30T05:18:29.107Z,9.60
2019-04-30T05:20:59.045Z,9.60
2019-04-30T05:23:29.827Z,9.56
2019-04-30T05:25:59.180Z,9.70
2019-04-30T05:28:30.125Z,9.73
2019-04-30T05:30:59.590Z,9.73
2019-04-30T05:33:28.790Z,9.77
2019-04-30T05:35:59.446Z,9.80
2019-04-30T05:38:31.268Z,9.81
2019-04-30T05:40:59.825Z,9.96
2019-04-30T05:43:29.121Z,10.02
2019-04-30T05:45:58.777Z,10.10
2019-04-30T05:48:28.768Z,10.17
2019-04-30T05:50:59.082Z,10.35
2019-04-30T05:53:28.770Z,10.63
2019-04-30T05:55:59.340Z,10.89
2019-04-30T05:58:30.025Z,11.14
2019-04-30T06:00:59.788Z,11.20
2019-04-30T06:03:32.912Z,11.45
2019-04-30T06:05:59.986Z,11.55
2019-04-30T06:08:39.171Z,11.40
2019-04-30T06:11:11.299Z,11.51
2019-04-30T06:13:51.226Z,11.46
2019-04-30T06:16:22.419Z,11.46
2019-04-30T06:18:53.162Z,11.43
2019-04-30T06:21:22.374Z,11.39
2019-04-30T06:23:51.865Z,11.43
2019-04-30T06:26:21.434Z,11.27
2019-04-30T06:28:50.954Z,11.25
2019-04-30T06:31:31.816Z,11.21
2019-04-30T06:33:51.204Z,10.98
2019-04-30T06:36:20.709Z,11.05
2019-04-30T06:38:50.081Z,10.83
2019-04-30T06:41:19.796Z,10.82
2019-04-30T06:43:49.951Z,10.63
2019-04-30T06:46:19.135Z,10.69
2019-04-30T06:48:51.017Z,10.87
2019-04-30T06:51:20.245Z,10.90
2019-04-30T06:53:51.250Z,10.89
2019-04-30T06:56:20.358Z,10.85
2019-04-30T06:58:52.362Z,11.08
2019-04-30T07:01:20.513Z,11.29
2019-04-30T07:03:49.707Z,11.27
2019-04-30T07:06:29.214Z,11.31
2019-04-30T07:09:33.532Z,11.38
2019-04-30T07:12:06.588Z,11.59
2019-04-30T07:14:35.755Z,11.71
2019-04-30T07:17:05.242Z,11.86
2019-04-30T07:19:52.457Z,11.89
2019-04-30T07:22:05.861Z,11.89
2019-04-30T07:24:35.001Z,11.96
2019-04-30T07:27:04.222Z,11.89
2019-04-30T07:29:33.498Z,12.00
2019-04-30T07:32:02.704Z,11.98
2019-04-30T07:34:36.923Z,11.93
2019-04-30T07:37:15.914Z,11.80
2019-04-30T07:39:33.962Z,11.87
2019-04-30T07:42:03.463Z,11.60
2019-04-30T07:44:36.478Z,11.73
2019-04-30T07:47:03.623Z,11.74
2019-04-30T07:49:46.979Z,11.82
2019-04-30T07:52:04.731Z,11.95
2019-04-30T07:54:34.221Z,12.27
2019-04-30T07:57:03.578Z,12.72
2019-04-30T07:59:32.795Z,12.72
2019-04-30T08:02:10.045Z,12.91
2019-04-30T08:04:51.323Z,12.78
2019-04-30T08:07:20.822Z,12.73
2019-04-30T08:09:50.148Z,13.01
2019-04-30T08:12:28.206Z,13.27
2019-04-30T08:14:50.552Z,13.94
2019-04-30T08:17:19.728Z,13.94
2019-04-30T08:19:50.738Z,14.05
2019-04-30T08:22:22.842Z,14.38
2019-04-30T08:24:52.045Z,14.79
2019-04-30T08:27:21.316Z,14.30
2019-04-30T08:29:50.513Z,14.58
2019-04-30T08:32:19.697Z,14.22
2019-04-30T08:34:50.124Z,14.26
2019-04-30T08:37:20.251Z,15.11
2019-04-30T08:39:49.832Z,15.90
2019-04-30T08:42:30.738Z,15.99
2019-04-30T08:44:50.416Z,14.99
2019-04-30T08:47:21.308Z,15.77
2019-04-30T08:49:50.835Z,16.03
2019-04-30T08:52:20.506Z,15.80
2019-04-30T08:54:49.888Z,15.96
2019-04-30T08:57:19.415Z,16.72
2019-04-30T08:59:49.485Z,16.42
2019-04-30T09:02:19.690Z,15.53
2019-04-30T09:04:52.490Z,15.01
2019-04-30T09:07:21.668Z,15.60
2019-04-30T09:09:50.861Z,16.50
2019-04-30T09:12:20.010Z,16.25
2019-04-30T09:14:49.281Z,16.65
2019-04-30T09:17:19.875Z,17.52
2019-04-30T09:19:49.199Z,17.82
2019-04-30T09:22:19.488Z,15.39
2019-04-30T09:24:49.748Z,14.15
2019-04-30T09:27:19.655Z,14.51
2019-04-30T09:29:49.414Z,15.54
2019-04-30T09:32:19.442Z,15.36
2019-04-30T09:34:49.022Z,14.70
2019-04-30T09:37:18.825Z,16.03
2019-04-30T09:39:49.413Z,16.11
2019-04-30T09:42:19.580Z,17.34
2019-04-30T09:44:49.394Z,17.97
2019-04-30T09:47:20.104Z,18.77
2019-04-30T09:49:49.671Z,17.89
2019-04-30T09:52:19.831Z,18.80
2019-04-30T09:54:50.335Z,19.71
2019-04-30T09:57:20.008Z,19.03
2019-04-30T09:59:49.565Z,18.43
2019-04-30T10:02:19.254Z,18.84
2019-04-30T10:04:48.913Z,18.61
2019-04-30T10:07:19.518Z,19.96
2019-04-30T10:09:50.877Z,18.27
2019-04-30T10:12:19.759Z,19.04
2019-04-30T10:14:49.407Z,20.01
2019-04-30T10:17:38.296Z,17.68
2019-04-30T10:20:11.205Z,16.31
2019-04-30T10:22:40.426Z,15.70
2019-04-30T10:25:10.298Z,17.23
2019-04-30T10:27:39.561Z,18.11
2019-04-30T10:30:09.903Z,19.25
2019-04-30T10:32:39.085Z,19.95
2019-04-30T10:35:08.483Z,19.35
2019-04-30T10:37:38.748Z,17.70
2019-04-30T10:40:10.288Z,17.70
2019-04-30T10:42:39.597Z,17.36
2019-04-30T10:45:09.980Z,17.37
2019-04-30T10:47:39.516Z,17.36
2019-04-30T10:50:09.910Z,15.64
2019-04-30T10:52:39.457Z,15.64
2019-04-30T10:55:09.387Z,16.82
2019-04-30T10:57:39.675Z,16.13
2019-04-30T11:00:13.956Z,15.66
2019-04-30T11:02:43.363Z,16.76
2019-04-30T11:05:13.068Z,18.46
2019-04-30T11:07:42.512Z,19.39
2019-04-30T11:10:12.096Z,17.54
2019-04-30T11:12:41.306Z,18.85
2019-04-30T11:15:10.696Z,19.48
2019-04-30T11:17:40.146Z,17.18
2019-04-30T11:20:11.406Z,19.26
2019-04-30T11:22:41.068Z,19.87
2019-04-30T11:25:12.385Z,18.58
2019-04-30T11:27:42.467Z,20.57
2019-04-30T11:30:21.399Z,19.64
2019-04-30T11:32:43.512Z,20.54
2019-04-30T11:35:13.838Z,21.67
2019-04-30T11:37:43.035Z,21.79
2019-04-30T11:40:13.681Z,20.34
2019-04-30T11:42:42.933Z,17.94
2019-04-30T11:45:14.893Z,18.96
2019-04-30T11:47:53.070Z,19.14
2019-04-30T11:50:15.446Z,20.60
2019-04-30T11:52:44.620Z,21.14
2019-04-30T11:55:13.993Z,21.17
2019-04-30T11:57:43.199Z,21.13
2019-04-30T12:00:18.814Z,20.34
2019-04-30T12:02:52.644Z,20.22
2019-04-30T12:05:20.827Z,22.08
2019-04-30T12:07:55.506Z,22.39
2019-04-30T12:10:52.791Z,22.51
2019-04-30T12:13:32.857Z,21.46
2019-04-30T12:16:02.412Z,20.34
2019-04-30T12:18:31.643Z,19.30
2019-04-30T12:21:01.163Z,20.02
2019-04-30T12:23:30.435Z,20.46
2019-04-30T12:26:02.655Z,20.91
2019-04-30T12:28:30.936Z,18.83
2019-04-30T12:31:00.177Z,19.88
2019-04-30T12:33:29.499Z,19.77
2019-04-30T12:35:59.621Z,20.69
2019-04-30T12:38:29.834Z,22.08
2019-04-30T12:40:59.244Z,22.98
2019-04-30T12:43:28.583Z,22.87
2019-04-30T12:46:03.507Z,22.09
2019-04-30T12:48:42.827Z,21.29
2019-04-30T12:51:46.029Z,20.58
2019-04-30T12:54:17.031Z,19.78
2019-04-30T12:57:14.104Z,20.82
2019-04-30T12:59:43.321Z,20.29
2019-04-30T13:02:12.835Z,20.33
2019-04-30T13:04:42.046Z,21.65
2019-04-30T13:07:12.070Z,21.70
2019-04-30T13:09:42.129Z,21.59
2019-04-30T13:12:12.365Z,20.75
2019-04-30T13:14:51.333Z,21.05
2019-04-30T13:17:13.174Z,21.30
2019-04-30T13:19:42.435Z,21.29
2019-04-30T13:22:11.648Z,20.49
2019-04-30T13:24:40.961Z,21.50
2019-04-30T13:27:10.215Z,20.65
2019-04-30T13:29:49.098Z,21.61
2019-04-30T13:32:29.580Z,21.72
2019-04-30T13:34:56.197Z,22.46
2019-04-30T13:37:28.959Z,20.84
2019-04-30T13:40:15.373Z,22.38
2019-04-30T13:42:48.823Z,22.14
2019-04-30T13:45:18.652Z,20.33
2019-04-30T13:47:49.059Z,21.36
2019-04-30T13:50:19.713Z,21.49
2019-04-30T13:52:49.438Z,21.14
2019-04-30T13:55:19.168Z,21.62
2019-04-30T13:57:48.569Z,20.51
2019-04-30T14:00:22.897Z,19.19
2019-04-30T14:03:00.604Z,19.83
2019-04-30T14:05:29.528Z,19.98
2019-04-30T14:08:22.207Z,20.32
2019-04-30T14:10:51.378Z,20.47
2019-04-30T14:13:21.461Z,19.45
2019-04-30T14:15:50.820Z,19.07
2019-04-30T14:18:28.510Z,18.45
2019-04-30T14:20:51.045Z,18.76
2019-04-30T14:23:20.223Z,19.13
2019-04-30T14:25:56.382Z,19.55
2019-04-30T14:28:20.349Z,19.59
2019-04-30T14:30:49.859Z,19.75
2019-04-30T14:33:26.354Z,19.08
2019-04-30T14:35:51.990Z,19.51
2019-04-30T14:38:21.131Z,19.96
2019-04-30T14:40:51.257Z,20.50
2019-04-30T14:43:51.018Z,20.72
2019-04-30T14:46:39.804Z,20.93
2019-04-30T14:49:32.576Z,20.16
2019-04-30T14:52:02.533Z,19.99
2019-04-30T14:54:50.240Z,20.43
2019-04-30T14:57:46.103Z,20.22
2019-04-30T15:00:32.988Z,19.36
2019-04-30T15:03:09.362Z,18.82
2019-04-30T15:05:48.343Z,19.59
2019-04-30T15:08:11.333Z,20.18
2019-04-30T15:10:40.687Z,20.57
2019-04-30T15:13:09.947Z,20.99
2019-04-30T15:15:39.299Z,21.15
2019-04-30T15:18:09.210Z,20.89
2019-04-30T15:20:39.822Z,20.66
2019-04-30T15:23:18.995Z,20.24
2019-04-30T15:25:48.682Z,20.09
2019-04-30T15:28:17.907Z,20.17
2019-04-30T15:30:48.807Z,20.48
2019-04-30T15:33:40.017Z,20.51
2019-04-30T15:36:09.782Z,20.71
2019-04-30T15:38:57.284Z,20.91
2019-04-30T15:41:26.544Z,20.77
2019-04-30T15:43:55.705Z,20.67
2019-04-30T15:46:24.914Z,20.44
2019-04-30T15:48:54.111Z,19.96
2019-04-30T15:51:23.352Z,20.00
2019-04-30T15:53:52.498Z,20.06
2019-04-30T15:56:34.121Z,20.10
2019-04-30T15:59:24.078Z,20.19
2019-04-30T16:01:55.758Z,19.62
2019-04-30T16:04:38.457Z,19.92
2019-04-30T16:07:08.477Z,19.47
2019-04-30T16:09:44.584Z,19.57
2019-04-30T16:12:32.717Z,19.82
2019-04-30T16:15:02.000Z,19.82
2019-04-30T16:17:31.238Z,19.44
2019-04-30T16:20:00.500Z,19.57
2019-04-30T16:22:29.835Z,19.59
2019-04-30T16:25:00.648Z,19.56
2019-04-30T16:27:30.013Z,20.12
2019-04-30T16:29:59.555Z,20.71
2019-04-30T16:32:29.370Z,21.05
2019-04-30T16:34:59.257Z,21.44
2019-04-30T16:37:28.828Z,21.81
2019-04-30T16:39:58.137Z,21.25
2019-04-30T16:42:29.071Z,20.28
2019-04-30T16:45:00.556Z,20.78
2019-04-30T16:47:29.763Z,20.76
2019-04-30T16:49:59.163Z,21.17
2019-04-30T16:52:29.421Z,21.95
2019-04-30T16:54:58.985Z,20.80
2019-04-30T16:57:30.094Z,20.58
2019-04-30T16:59:59.412Z,20.71
2019-04-30T17:02:30.580Z,21.15
2019-04-30T17:05:04.539Z,20.60
2019-04-30T17:07:59.599Z,20.21
2019-04-30T17:10:50.481Z,20.23
2019-04-30T17:13:41.297Z,20.17
2019-04-30T17:16:14.466Z,20.42
2019-04-30T17:18:43.679Z,20.06
2019-04-30T17:21:13.047Z,20.48
2019-04-30T17:23:42.222Z,21.00
2019-04-30T17:26:11.559Z,21.19
2019-04-30T17:28:40.847Z,21.24
2019-04-30T17:31:10.192Z,21.47
2019-04-30T17:33:39.485Z,21.15
2019-04-30T17:36:11.095Z,20.83
2019-04-30T17:38:42.091Z,20.59
2019-04-30T17:41:11.317Z,20.15
2019-04-30T17:43:41.780Z,19.43
2019-04-30T17:46:11.126Z,19.14
2019-04-30T17:48:41.587Z,18.99
2019-04-30T17:51:10.818Z,18.59
2019-04-30T17:53:58.981Z,18.48
2019-04-30T17:56:28.380Z,18.14
2019-04-30T17:58:57.599Z,18.04
2019-04-30T18:01:27.038Z,17.97
2019-04-30T18:03:56.233Z,17.89
2019-04-30T18:06:25.615Z,17.76
2019-04-30T18:08:54.836Z,17.51
2019-04-30T18:11:24.090Z,17.13
2019-04-30T18:13:53.499Z,16.70
2019-04-30T18:16:23.053Z,16.43
2019-04-30T18:18:59.206Z,16.23
2019-04-30T18:21:41.328Z,15.98
2019-04-30T18:24:23.918Z,15.83
2019-04-30T18:27:03.059Z,15.69
2019-04-30T18:29:32.269Z,15.51
2019-04-30T18:32:01.597Z,15.40
2019-04-30T18:34:30.947Z,15.28
2019-04-30T18:37:00.578Z,15.15
2019-04-30T18:39:29.937Z,15.05
2019-04-30T18:41:59.349Z,14.94
2019-04-30T18:44:29.561Z,14.78
2019-04-30T18:46:59.117Z,14.55
2019-04-30T18:49:28.785Z,14.20
2019-04-30T18:51:59.017Z,13.96
2019-04-30T18:54:28.963Z,13.77
2019-04-30T18:56:58.933Z,13.74
2019-04-30T18:59:28.234Z,13.64
2019-04-30T19:01:57.503Z,13.38
2019-04-30T19:04:28.694Z,13.38
2019-04-30T19:07:01.031Z,13.01
2019-04-30T19:09:44.230Z,12.95
2019-04-30T19:12:32.204Z,12.95
2019-04-30T19:15:20.546Z,12.78
2019-04-30T19:18:02.835Z,12.59
2019-04-30T19:20:38.603Z,12.49
2019-04-30T19:23:10.006Z,12.41
2019-04-30T19:25:39.100Z,12.33
2019-04-30T19:28:12.198Z,12.27
2019-04-30T19:30:39.437Z,12.18
2019-04-30T19:33:08.799Z,12.10
2019-04-30T19:35:37.991Z,12.31
2019-04-30T19:38:09.187Z,12.21
2019-04-30T19:40:39.204Z,12.03
2019-04-30T19:43:08.938Z,11.88
2019-04-30T19:45:38.232Z,11.76
2019-04-30T19:48:09.009Z,11.77
2019-04-30T19:50:38.494Z,11.76
2019-04-30T19:53:08.815Z,11.74
2019-04-30T19:55:39.383Z,11.64
2019-04-30T19:58:10.730Z,11.48
2019-04-30T20:00:39.888Z,11.44
2019-04-30T20:03:09.097Z,11.47
2019-04-30T20:05:39.433Z,11.37
2019-04-30T20:08:11.030Z,11.25
2019-04-30T20:10:39.991Z,11.04
2019-04-30T20:13:10.787Z,10.98
2019-04-30T20:15:40.384Z,10.90
2019-04-30T20:18:09.614Z,10.91
2019-04-30T20:20:40.638Z,10.87
2019-04-30T20:23:09.875Z,10.92
2019-04-30T20:25:39.144Z,10.95
2019-04-30T20:28:08.541Z,10.80
2019-04-30T20:30:39.274Z,10.62
2019-04-30T20:33:09.108Z,10.48
2019-04-30T20:35:39.033Z,10.40
2019-04-30T20:38:34.542Z,10.46
2019-04-30T20:41:04.494Z,10.44
2019-04-30T20:43:33.706Z,10.33
2019-04-30T20:46:02.945Z,10.29
2019-04-30T20:48:32.243Z,10.27
2019-04-30T20:51:01.583Z,10.18
2019-04-30T20:53:30.822Z,10.01
2019-04-30T20:56:00.036Z,10.03
2019-04-30T20:58:29.328Z,10.05
2019-04-30T21:01:04.095Z,10.03
2019-04-30T21:03:29.699Z,9.91
2019-04-30T21:06:00.581Z,9.78
2019-04-30T21:08:29.920Z,9.71
2019-04-30T21:10:59.457Z,9.59
2019-04-30T21:13:29.482Z,9.45
2019-04-30T21:15:59.499Z,9.31
2019-04-30T21:18:32.137Z,9.29
2019-04-30T21:20:59.811Z,9.36
2019-04-30T21:23:29.386Z,9.36
2019-04-30T21:25:59.060Z,9.39
2019-04-30T21:28:29.716Z,9.39
2019-04-30T21:31:02.187Z,9.29
2019-04-30T21:33:41.179Z,9.24
2019-04-30T21:36:15.016Z,9.26
2019-04-30T21:38:44.215Z,9.23
2019-04-30T21:41:13.393Z,9.25
2019-04-30T21:43:42.592Z,9.14
2019-04-30T21:46:11.848Z,9.03
2019-04-30T21:48:42.588Z,9.08
2019-04-30T21:51:12.141Z,9.03
2019-04-30T21:53:41.392Z,9.00
2019-04-30T21:56:10.562Z,8.91
2019-04-30T21:58:39.798Z,8.86
2019-04-30T22:01:26.040Z,8.71
2019-04-30T22:03:55.479Z,8.67
2019-04-30T22:06:24.682Z,8.60
2019-04-30T22:08:53.972Z,8.59
2019-04-30T22:11:23.191Z,8.56
2019-04-30T22:13:52.423Z,8.57
2019-04-30T22:16:21.612Z,8.46
2019-04-30T22:18:51.102Z,8.42
2019-04-30T22:21:20.429Z,8.38
2019-04-30T22:23:49.673Z,8.25
2019-04-30T22:26:18.899Z,8.14
2019-04-30T22:28:49.344Z,8.05
2019-04-30T22:31:19.706Z,8.07
2019-04-30T22:33:49.186Z,8.04
2019-04-30T22:36:28.835Z,8.10
2019-04-30T22:39:15.512Z,8.15
2019-04-30T22:41:44.852Z,8.15
2019-04-30T22:44:14.125Z,8.06
2019-04-30T22:46:43.307Z,8.04
2019-04-30T22:49:12.596Z,8.09
2019-04-30T22:51:41.800Z,8.03
2019-04-30T22:54:10.926Z,8.01
2019-04-30T22:56:40.094Z,8.01
2019-04-30T22:59:09.261Z,8.04
2019-04-30T23:01:47.678Z,8.01
2019-04-30T23:04:25.494Z,7.94
2019-04-30T23:06:54.676Z,7.95
2019-04-30T23:09:23.832Z,7.95
2019-04-30T23:11:53.351Z,7.94
2019-04-30T23:14:22.537Z,7.82
2019-04-30T23:16:51.731Z,7.79
2019-04-30T23:19:20.912Z,7.76
2019-04-30T23:21:50.112Z,7.73
2019-04-30T23:24:19.255Z,7.68
2019-04-30T23:26:48.626Z,7.65
2019-04-30T23:29:17.792Z,7.65
2019-04-30T23:31:46.978Z,7.62
2019-04-30T23:34:18.200Z,7.56
2019-04-30T23:36:47.092Z,7.44
2019-04-30T23:39:16.296Z,7.38
2019-04-30T23:41:45.506Z,7.41
2019-04-30T23:44:14.669Z,7.38
2019-04-30T23:46:43.856Z,7.50
2019-04-30T23:49:13.026Z,7.56
2019-04-30T23:51:42.318Z,7.62
2019-04-30T23:54:11.502Z,7.61
2019-04-30T23:56:40.693Z,7.62
2019-04-30T23:59:09.847Z,7.57
